sensor_id;sensor_type;location;lat;lon;timestamp;P1;durP1;ratioP1;P2;durP2;ratioP2
11086;SDS011;5597;47.588;9.642;2023-07-29T00:01:19;3.53;;;2.73;;
11086;SDS011;5597;47.588;9.642;2023-07-29T00:03:45;3.30;;;3.00;;
11086;SDS011;5597;47.588;9.642;2023-07-29T00:06:10;3.43;;;3.00;;
11086;SDS011;5597;47.588;9.642;2023-07-29T00:08:36;3.57;;;2.80;;
11086;SDS011;5597;47.588;9.642;2023-07-29T00:11:02;2.83;;;2.63;;
11086;SDS011;5597;47.588;9.642;2023-07-29T00:13:27;3.17;;;2.87;;
11086;SDS011;5597;47.588;9.642;2023-07-29T00:15:54;3.00;;;2.70;;
11086;SDS011;5597;47.588;9.642;2023-07-29T00:18:20;4.13;;;3.13;;
11086;SDS011;5597;47.588;9.642;2023-07-29T00:20:46;3.87;;;3.00;;
11086;SDS011;5597;47.588;9.642;2023-07-29T00:23:12;4.10;;;3.07;;
11086;SDS011;5597;47.588;9.642;2023-07-29T00:25:38;3.97;;;3.17;;
11086;SDS011;5597;47.588;9.642;2023-07-29T00:28:03;3.47;;;3.17;;
11086;SDS011;5597;47.588;9.642;2023-07-29T00:30:29;4.03;;;2.83;;
11086;SDS011;5597;47.588;9.642;2023-07-29T00:32:55;3.20;;;2.90;;
11086;SDS011;5597;47.588;9.642;2023-07-29T00:35:20;3.47;;;3.17;;
11086;SDS011;5597;47.588;9.642;2023-07-29T00:37:46;3.63;;;3.17;;
11086;SDS011;5597;47.588;9.642;2023-07-29T00:40:15;3.47;;;2.70;;
11086;SDS011;5597;47.588;9.642;2023-07-29T00:42:45;3.83;;;3.07;;
11086;SDS011;5597;47.588;9.642;2023-07-29T00:45:11;2.80;;;2.60;;
11086;SDS011;5597;47.588;9.642;2023-07-29T00:47:37;4.77;;;3.10;;
11086;SDS011;5597;47.588;9.642;2023-07-29T00:50:04;3.27;;;2.93;;
11086;SDS011;5597;47.588;9.642;2023-07-29T00:52:31;4.00;;;3.00;;
11086;SDS011;5597;47.588;9.642;2023-07-29T00:54:57;3.30;;;2.83;;
11086;SDS011;5597;47.588;9.642;2023-07-29T00:57:22;3.50;;;2.67;;
11086;SDS011;5597;47.588;9.642;2023-07-29T00:59:50;3.37;;;3.07;;
11086;SDS011;5597;47.588;9.642;2023-07-29T01:02:16;3.57;;;2.50;;
11086;SDS011;5597;47.588;9.642;2023-07-29T01:04:41;2.80;;;2.47;;
11086;SDS011;5597;47.588;9.642;2023-07-29T01:07:20;3.10;;;2.80;;
11086;SDS011;5597;47.588;9.642;2023-07-29T01:09:55;3.27;;;2.93;;
11086;SDS011;5597;47.588;9.642;2023-07-29T01:15:28;3.43;;;2.60;;
11086;SDS011;5597;47.588;9.642;2023-07-29T01:18:16;3.27;;;2.80;;
11086;SDS011;5597;47.588;9.642;2023-07-29T01:20:47;3.10;;;2.37;;
11086;SDS011;5597;47.588;9.642;2023-07-29T01:23:13;3.83;;;2.60;;
11086;SDS011;5597;47.588;9.642;2023-07-29T01:25:40;3.10;;;2.80;;
11086;SDS011;5597;47.588;9.642;2023-07-29T01:28:06;3.40;;;3.10;;
11086;SDS011;5597;47.588;9.642;2023-07-29T01:30:39;3.50;;;2.63;;
11086;SDS011;5597;47.588;9.642;2023-07-29T01:33:30;2.80;;;2.60;;
11086;SDS011;5597;47.588;9.642;2023-07-29T01:35:58;3.37;;;2.93;;
11086;SDS011;5597;47.588;9.642;2023-07-29T01:38:28;2.67;;;2.47;;
11086;SDS011;5597;47.588;9.642;2023-07-29T01:41:00;2.60;;;2.40;;
11086;SDS011;5597;47.588;9.642;2023-07-29T01:43:27;3.50;;;2.37;;
11086;SDS011;5597;47.588;9.642;2023-07-29T01:45:54;2.30;;;2.10;;
11086;SDS011;5597;47.588;9.642;2023-07-29T01:48:19;4.10;;;2.60;;
11086;SDS011;5597;47.588;9.642;2023-07-29T01:50:45;2.90;;;2.57;;
11086;SDS011;5597;47.588;9.642;2023-07-29T01:53:10;4.80;;;2.80;;
11086;SDS011;5597;47.588;9.642;2023-07-29T01:55:36;3.87;;;2.70;;
11086;SDS011;5597;47.588;9.642;2023-07-29T01:58:02;3.43;;;2.47;;
11086;SDS011;5597;47.588;9.642;2023-07-29T02:00:27;2.97;;;2.70;;
11086;SDS011;5597;47.588;9.642;2023-07-29T02:02:53;3.37;;;3.00;;
11086;SDS011;5597;47.588;9.642;2023-07-29T02:05:18;3.20;;;2.90;;
11086;SDS011;5597;47.588;9.642;2023-07-29T02:07:44;3.10;;;2.80;;
11086;SDS011;5597;47.588;9.642;2023-07-29T02:10:09;2.60;;;2.40;;
11086;SDS011;5597;47.588;9.642;2023-07-29T02:12:35;3.00;;;2.70;;
11086;SDS011;5597;47.588;9.642;2023-07-29T02:15:00;2.87;;;2.53;;
11086;SDS011;5597;47.588;9.642;2023-07-29T02:17:26;3.30;;;3.00;;
11086;SDS011;5597;47.588;9.642;2023-07-29T02:19:51;3.60;;;2.53;;
11086;SDS011;5597;47.588;9.642;2023-07-29T02:22:17;3.10;;;2.80;;
11086;SDS011;5597;47.588;9.642;2023-07-29T02:24:43;2.87;;;2.50;;
11086;SDS011;5597;47.588;9.642;2023-07-29T02:27:09;4.13;;;2.67;;
11086;SDS011;5597;47.588;9.642;2023-07-29T02:29:35;3.07;;;2.77;;
11086;SDS011;5597;47.588;9.642;2023-07-29T02:32:01;3.07;;;2.60;;
11086;SDS011;5597;47.588;9.642;2023-07-29T02:34:27;3.33;;;2.90;;
11086;SDS011;5597;47.588;9.642;2023-07-29T02:36:53;2.97;;;2.70;;
11086;SDS011;5597;47.588;9.642;2023-07-29T02:39:19;3.40;;;3.10;;
11086;SDS011;5597;47.588;9.642;2023-07-29T02:41:45;4.17;;;2.60;;
11086;SDS011;5597;47.588;9.642;2023-07-29T02:44:10;3.17;;;2.87;;
11086;SDS011;5597;47.588;9.642;2023-07-29T02:46:36;4.03;;;3.23;;
11086;SDS011;5597;47.588;9.642;2023-07-29T02:49:02;4.47;;;2.90;;
11086;SDS011;5597;47.588;9.642;2023-07-29T02:51:28;3.57;;;3.17;;
11086;SDS011;5597;47.588;9.642;2023-07-29T02:53:54;3.73;;;3.00;;
11086;SDS011;5597;47.588;9.642;2023-07-29T02:56:20;2.80;;;2.60;;
11086;SDS011;5597;47.588;9.642;2023-07-29T02:58:45;3.50;;;3.20;;
11086;SDS011;5597;47.588;9.642;2023-07-29T03:01:11;3.30;;;3.00;;
11086;SDS011;5597;47.588;9.642;2023-07-29T03:03:36;3.73;;;2.80;;
11086;SDS011;5597;47.588;9.642;2023-07-29T03:06:06;3.93;;;3.27;;
11086;SDS011;5597;47.588;9.642;2023-07-29T03:08:33;3.50;;;3.20;;
11086;SDS011;5597;47.588;9.642;2023-07-29T03:10:59;3.90;;;3.10;;
11086;SDS011;5597;47.588;9.642;2023-07-29T03:13:31;3.50;;;3.20;;
11086;SDS011;5597;47.588;9.642;2023-07-29T03:16:06;3.57;;;3.27;;
11086;SDS011;5597;47.588;9.642;2023-07-29T03:18:32;3.20;;;2.90;;
11086;SDS011;5597;47.588;9.642;2023-07-29T03:20:58;3.53;;;3.20;;
11086;SDS011;5597;47.588;9.642;2023-07-29T03:23:24;3.90;;;3.07;;
11086;SDS011;5597;47.588;9.642;2023-07-29T03:25:49;3.37;;;3.07;;
11086;SDS011;5597;47.588;9.642;2023-07-29T03:28:21;3.00;;;2.70;;
11086;SDS011;5597;47.588;9.642;2023-07-29T03:30:48;3.23;;;2.90;;
11086;SDS011;5597;47.588;9.642;2023-07-29T03:33:13;3.97;;;3.03;;
11086;SDS011;5597;47.588;9.642;2023-07-29T03:35:39;4.63;;;3.10;;
11086;SDS011;5597;47.588;9.642;2023-07-29T03:38:04;3.43;;;2.83;;
11086;SDS011;5597;47.588;9.642;2023-07-29T03:40:30;3.60;;;3.00;;
11086;SDS011;5597;47.588;9.642;2023-07-29T03:42:56;3.13;;;2.83;;
11086;SDS011;5597;47.588;9.642;2023-07-29T03:45:21;3.53;;;2.90;;
11086;SDS011;5597;47.588;9.642;2023-07-29T03:47:47;3.00;;;2.70;;
11086;SDS011;5597;47.588;9.642;2023-07-29T03:50:12;3.20;;;2.90;;
11086;SDS011;5597;47.588;9.642;2023-07-29T03:52:38;4.50;;;2.70;;
11086;SDS011;5597;47.588;9.642;2023-07-29T03:55:03;3.43;;;3.13;;
11086;SDS011;5597;47.588;9.642;2023-07-29T03:57:29;3.40;;;3.10;;
11086;SDS011;5597;47.588;9.642;2023-07-29T03:59:55;4.43;;;2.90;;
11086;SDS011;5597;47.588;9.642;2023-07-29T04:02:20;3.13;;;2.83;;
11086;SDS011;5597;47.588;9.642;2023-07-29T04:04:46;3.40;;;3.10;;
11086;SDS011;5597;47.588;9.642;2023-07-29T04:07:13;5.20;;;2.93;;
11086;SDS011;5597;47.588;9.642;2023-07-29T04:09:39;3.13;;;2.83;;
11086;SDS011;5597;47.588;9.642;2023-07-29T04:12:05;3.27;;;2.97;;
11086;SDS011;5597;47.588;9.642;2023-07-29T04:14:30;3.30;;;3.00;;
11086;SDS011;5597;47.588;9.642;2023-07-29T04:16:56;5.40;;;2.87;;
11086;SDS011;5597;47.588;9.642;2023-07-29T04:19:22;3.57;;;2.90;;
11086;SDS011;5597;47.588;9.642;2023-07-29T04:21:47;4.00;;;2.93;;
11086;SDS011;5597;47.588;9.642;2023-07-29T04:24:13;4.47;;;3.20;;
11086;SDS011;5597;47.588;9.642;2023-07-29T04:26:38;3.07;;;2.77;;
11086;SDS011;5597;47.588;9.642;2023-07-29T04:29:04;4.77;;;3.20;;
11086;SDS011;5597;47.588;9.642;2023-07-29T04:31:30;3.30;;;3.00;;
11086;SDS011;5597;47.588;9.642;2023-07-29T04:33:55;3.97;;;3.30;;
11086;SDS011;5597;47.588;9.642;2023-07-29T04:36:21;4.43;;;3.10;;
11086;SDS011;5597;47.588;9.642;2023-07-29T04:38:46;4.33;;;3.10;;
11086;SDS011;5597;47.588;9.642;2023-07-29T04:41:12;3.40;;;3.10;;
11086;SDS011;5597;47.588;9.642;2023-07-29T04:43:37;3.97;;;3.20;;
11086;SDS011;5597;47.588;9.642;2023-07-29T04:46:05;3.70;;;3.37;;
11086;SDS011;5597;47.588;9.642;2023-07-29T04:48:32;3.37;;;3.07;;
11086;SDS011;5597;47.588;9.642;2023-07-29T04:50:58;3.33;;;3.00;;
11086;SDS011;5597;47.588;9.642;2023-07-29T04:53:23;3.17;;;2.87;;
11086;SDS011;5597;47.588;9.642;2023-07-29T04:55:49;3.33;;;2.97;;
11086;SDS011;5597;47.588;9.642;2023-07-29T04:58:14;3.53;;;2.97;;
11086;SDS011;5597;47.588;9.642;2023-07-29T05:00:40;3.63;;;3.33;;
11086;SDS011;5597;47.588;9.642;2023-07-29T05:03:05;3.13;;;2.83;;
11086;SDS011;5597;47.588;9.642;2023-07-29T05:05:31;4.07;;;2.87;;
11086;SDS011;5597;47.588;9.642;2023-07-29T05:07:57;3.20;;;2.90;;
11086;SDS011;5597;47.588;9.642;2023-07-29T05:10:22;3.17;;;2.87;;
11086;SDS011;5597;47.588;9.642;2023-07-29T05:12:48;2.80;;;2.60;;
11086;SDS011;5597;47.588;9.642;2023-07-29T05:15:14;2.97;;;2.70;;
11086;SDS011;5597;47.588;9.642;2023-07-29T05:17:40;3.33;;;3.03;;
11086;SDS011;5597;47.588;9.642;2023-07-29T05:20:06;5.20;;;3.77;;
11086;SDS011;5597;47.588;9.642;2023-07-29T05:22:32;3.87;;;3.20;;
11086;SDS011;5597;47.588;9.642;2023-07-29T05:24:57;4.33;;;3.40;;
11086;SDS011;5597;47.588;9.642;2023-07-29T05:27:23;3.70;;;3.40;;
11086;SDS011;5597;47.588;9.642;2023-07-29T05:29:48;4.10;;;3.23;;
11086;SDS011;5597;47.588;9.642;2023-07-29T05:32:14;3.80;;;3.40;;
11086;SDS011;5597;47.588;9.642;2023-07-29T05:34:39;3.73;;;3.30;;
11086;SDS011;5597;47.588;9.642;2023-07-29T05:37:05;3.43;;;2.90;;
11086;SDS011;5597;47.588;9.642;2023-07-29T05:39:31;4.00;;;3.10;;
11086;SDS011;5597;47.588;9.642;2023-07-29T05:41:57;3.50;;;3.20;;
11086;SDS011;5597;47.588;9.642;2023-07-29T05:44:22;3.37;;;2.80;;
11086;SDS011;5597;47.588;9.642;2023-07-29T05:46:48;2.90;;;2.60;;
11086;SDS011;5597;47.588;9.642;2023-07-29T05:49:14;3.47;;;3.17;;
11086;SDS011;5597;47.588;9.642;2023-07-29T05:51:39;3.20;;;2.90;;
11086;SDS011;5597;47.588;9.642;2023-07-29T05:54:05;3.63;;;2.87;;
11086;SDS011;5597;47.588;9.642;2023-07-29T05:56:30;3.00;;;2.73;;
11086;SDS011;5597;47.588;9.642;2023-07-29T05:58:56;3.13;;;2.83;;
11086;SDS011;5597;47.588;9.642;2023-07-29T06:01:22;4.30;;;2.97;;
11086;SDS011;5597;47.588;9.642;2023-07-29T06:03:48;3.30;;;2.93;;
11086;SDS011;5597;47.588;9.642;2023-07-29T06:06:13;3.07;;;2.77;;
11086;SDS011;5597;47.588;9.642;2023-07-29T06:08:39;3.03;;;2.80;;
11086;SDS011;5597;47.588;9.642;2023-07-29T06:11:05;3.43;;;3.13;;
11086;SDS011;5597;47.588;9.642;2023-07-29T06:13:31;3.10;;;2.80;;
11086;SDS011;5597;47.588;9.642;2023-07-29T06:15:57;4.10;;;3.00;;
11086;SDS011;5597;47.588;9.642;2023-07-29T06:18:24;2.80;;;2.60;;
11086;SDS011;5597;47.588;9.642;2023-07-29T06:20:50;3.90;;;2.87;;
11086;SDS011;5597;47.588;9.642;2023-07-29T06:23:16;3.00;;;2.70;;
11086;SDS011;5597;47.588;9.642;2023-07-29T06:25:41;4.20;;;3.37;;
11086;SDS011;5597;47.588;9.642;2023-07-29T06:28:08;3.80;;;3.17;;
11086;SDS011;5597;47.588;9.642;2023-07-29T06:30:34;4.30;;;3.13;;
11086;SDS011;5597;47.588;9.642;2023-07-29T06:33:00;2.90;;;2.60;;
11086;SDS011;5597;47.588;9.642;2023-07-29T06:35:25;4.27;;;3.20;;
11086;SDS011;5597;47.588;9.642;2023-07-29T06:37:51;3.60;;;3.30;;
11086;SDS011;5597;47.588;9.642;2023-07-29T06:40:16;4.73;;;3.37;;
11086;SDS011;5597;47.588;9.642;2023-07-29T06:42:42;3.50;;;3.20;;
11086;SDS011;5597;47.588;9.642;2023-07-29T06:45:07;3.23;;;2.93;;
11086;SDS011;5597;47.588;9.642;2023-07-29T06:47:33;3.50;;;3.20;;
11086;SDS011;5597;47.588;9.642;2023-07-29T06:49:59;5.00;;;3.13;;
11086;SDS011;5597;47.588;9.642;2023-07-29T06:52:25;3.17;;;2.87;;
11086;SDS011;5597;47.588;9.642;2023-07-29T06:54:51;3.50;;;3.20;;
11086;SDS011;5597;47.588;9.642;2023-07-29T06:57:16;2.93;;;2.63;;
11086;SDS011;5597;47.588;9.642;2023-07-29T06:59:42;3.13;;;2.83;;
11086;SDS011;5597;47.588;9.642;2023-07-29T07:02:07;3.43;;;3.10;;
11086;SDS011;5597;47.588;9.642;2023-07-29T07:04:33;3.30;;;3.00;;
11086;SDS011;5597;47.588;9.642;2023-07-29T07:06:58;3.53;;;3.23;;
11086;SDS011;5597;47.588;9.642;2023-07-29T07:09:24;2.90;;;2.60;;
11086;SDS011;5597;47.588;9.642;2023-07-29T07:11:49;3.23;;;2.93;;
11086;SDS011;5597;47.588;9.642;2023-07-29T07:14:15;3.87;;;3.17;;
11086;SDS011;5597;47.588;9.642;2023-07-29T07:16:40;3.80;;;3.13;;
11086;SDS011;5597;47.588;9.642;2023-07-29T07:19:06;3.20;;;2.80;;
11086;SDS011;5597;47.588;9.642;2023-07-29T07:21:31;3.10;;;2.80;;
11086;SDS011;5597;47.588;9.642;2023-07-29T07:24:00;2.70;;;2.50;;
11086;SDS011;5597;47.588;9.642;2023-07-29T07:26:26;3.07;;;2.83;;
11086;SDS011;5597;47.588;9.642;2023-07-29T07:28:51;3.20;;;2.90;;
11086;SDS011;5597;47.588;9.642;2023-07-29T07:31:17;3.93;;;2.83;;
11086;SDS011;5597;47.588;9.642;2023-07-29T07:33:42;3.63;;;3.20;;
11086;SDS011;5597;47.588;9.642;2023-07-29T07:36:08;3.90;;;2.97;;
11086;SDS011;5597;47.588;9.642;2023-07-29T07:38:33;3.10;;;2.80;;
11086;SDS011;5597;47.588;9.642;2023-07-29T07:40:59;3.70;;;3.33;;
11086;SDS011;5597;47.588;9.642;2023-07-29T07:43:25;3.80;;;3.03;;
11086;SDS011;5597;47.588;9.642;2023-07-29T07:45:51;3.87;;;3.20;;
11086;SDS011;5597;47.588;9.642;2023-07-29T07:48:22;3.13;;;2.83;;
11086;SDS011;5597;47.588;9.642;2023-07-29T07:50:48;4.03;;;3.27;;
11086;SDS011;5597;47.588;9.642;2023-07-29T07:53:13;3.70;;;3.40;;
11086;SDS011;5597;47.588;9.642;2023-07-29T07:55:39;3.37;;;3.07;;
11086;SDS011;5597;47.588;9.642;2023-07-29T07:58:04;3.13;;;2.83;;
11086;SDS011;5597;47.588;9.642;2023-07-29T08:00:30;3.10;;;2.80;;
11086;SDS011;5597;47.588;9.642;2023-07-29T08:02:55;3.50;;;3.20;;
11086;SDS011;5597;47.588;9.642;2023-07-29T08:05:21;3.20;;;2.90;;
11086;SDS011;5597;47.588;9.642;2023-07-29T08:07:46;3.50;;;3.03;;
11086;SDS011;5597;47.588;9.642;2023-07-29T08:10:12;2.93;;;2.70;;
11086;SDS011;5597;47.588;9.642;2023-07-29T08:12:37;3.60;;;3.13;;
11086;SDS011;5597;47.588;9.642;2023-07-29T08:15:03;3.10;;;2.80;;
11086;SDS011;5597;47.588;9.642;2023-07-29T08:17:29;4.30;;;3.37;;
11086;SDS011;5597;47.588;9.642;2023-07-29T08:19:54;3.53;;;3.13;;
11086;SDS011;5597;47.588;9.642;2023-07-29T08:22:20;3.47;;;3.17;;
11086;SDS011;5597;47.588;9.642;2023-07-29T08:24:45;3.60;;;3.30;;
11086;SDS011;5597;47.588;9.642;2023-07-29T08:27:11;3.40;;;2.80;;
11086;SDS011;5597;47.588;9.642;2023-07-29T08:29:36;4.27;;;3.13;;
11086;SDS011;5597;47.588;9.642;2023-07-29T08:32:02;3.40;;;3.10;;
11086;SDS011;5597;47.588;9.642;2023-07-29T08:34:28;4.60;;;3.00;;
11086;SDS011;5597;47.588;9.642;2023-07-29T08:36:53;3.17;;;2.83;;
11086;SDS011;5597;47.588;9.642;2023-07-29T08:39:19;3.87;;;3.37;;
11086;SDS011;5597;47.588;9.642;2023-07-29T08:42:07;3.70;;;3.40;;
11086;SDS011;5597;47.588;9.642;2023-07-29T08:44:40;3.37;;;3.07;;
11086;SDS011;5597;47.588;9.642;2023-07-29T08:47:07;3.40;;;3.10;;
11086;SDS011;5597;47.588;9.642;2023-07-29T08:49:33;3.67;;;3.13;;
11086;SDS011;5597;47.588;9.642;2023-07-29T08:52:00;3.23;;;2.77;;
11086;SDS011;5597;47.588;9.642;2023-07-29T08:54:27;3.20;;;2.90;;
11086;SDS011;5597;47.588;9.642;2023-07-29T08:56:53;3.57;;;3.27;;
11086;SDS011;5597;47.588;9.642;2023-07-29T08:59:19;3.63;;;3.10;;
11086;SDS011;5597;47.588;9.642;2023-07-29T09:01:45;4.07;;;3.07;;
11086;SDS011;5597;47.588;9.642;2023-07-29T09:04:12;3.53;;;3.23;;
11086;SDS011;5597;47.588;9.642;2023-07-29T09:06:37;3.60;;;3.30;;
11086;SDS011;5597;47.588;9.642;2023-07-29T09:09:04;3.47;;;3.03;;
11086;SDS011;5597;47.588;9.642;2023-07-29T09:11:32;3.30;;;3.00;;
11086;SDS011;5597;47.588;9.642;2023-07-29T09:13:58;3.43;;;3.13;;
11086;SDS011;5597;47.588;9.642;2023-07-29T09:16:24;3.60;;;3.30;;
11086;SDS011;5597;47.588;9.642;2023-07-29T09:18:50;3.37;;;3.07;;
11086;SDS011;5597;47.588;9.642;2023-07-29T09:21:17;4.13;;;3.30;;
11086;SDS011;5597;47.588;9.642;2023-07-29T09:23:47;3.60;;;3.30;;
11086;SDS011;5597;47.588;9.642;2023-07-29T09:26:12;3.83;;;2.93;;
11086;SDS011;5597;47.588;9.642;2023-07-29T09:28:38;3.30;;;2.93;;
11086;SDS011;5597;47.588;9.642;2023-07-29T09:31:05;3.73;;;3.30;;
11086;SDS011;5597;47.588;9.642;2023-07-29T09:33:34;3.43;;;3.13;;
11086;SDS011;5597;47.588;9.642;2023-07-29T09:36:08;3.73;;;3.10;;
11086;SDS011;5597;47.588;9.642;2023-07-29T09:38:35;4.03;;;3.40;;
11086;SDS011;5597;47.588;9.642;2023-07-29T09:41:01;3.13;;;2.87;;
11086;SDS011;5597;47.588;9.642;2023-07-29T09:43:30;3.57;;;3.27;;
11086;SDS011;5597;47.588;9.642;2023-07-29T09:46:00;3.97;;;3.27;;
11086;SDS011;5597;47.588;9.642;2023-07-29T09:48:26;3.07;;;2.87;;
11086;SDS011;5597;47.588;9.642;2023-07-29T09:50:53;3.80;;;3.30;;
11086;SDS011;5597;47.588;9.642;2023-07-29T09:53:20;3.80;;;3.50;;
11086;SDS011;5597;47.588;9.642;2023-07-29T09:55:46;3.23;;;3.00;;
11086;SDS011;5597;47.588;9.642;2023-07-29T09:58:13;3.80;;;3.50;;
11086;SDS011;5597;47.588;9.642;2023-07-29T10:00:39;4.63;;;3.30;;
11086;SDS011;5597;47.588;9.642;2023-07-29T10:03:05;3.37;;;3.07;;
11086;SDS011;5597;47.588;9.642;2023-07-29T10:05:31;3.90;;;3.60;;
11086;SDS011;5597;47.588;9.642;2023-07-29T10:07:59;3.50;;;3.20;;
11086;SDS011;5597;47.588;9.642;2023-07-29T10:10:26;3.63;;;3.33;;
11086;SDS011;5597;47.588;9.642;2023-07-29T10:12:53;3.47;;;3.17;;
11086;SDS011;5597;47.588;9.642;2023-07-29T10:15:19;4.00;;;3.70;;
11086;SDS011;5597;47.588;9.642;2023-07-29T10:17:46;3.60;;;3.30;;
11086;SDS011;5597;47.588;9.642;2023-07-29T10:20:12;3.90;;;3.60;;
11086;SDS011;5597;47.588;9.642;2023-07-29T10:22:41;3.80;;;3.50;;
11086;SDS011;5597;47.588;9.642;2023-07-29T10:25:08;3.50;;;3.20;;
11086;SDS011;5597;47.588;9.642;2023-07-29T10:30:11;3.97;;;3.60;;
11086;SDS011;5597;47.588;9.642;2023-07-29T10:32:38;4.10;;;3.70;;
11086;SDS011;5597;47.588;9.642;2023-07-29T10:35:09;4.10;;;3.80;;
11086;SDS011;5597;47.588;9.642;2023-07-29T10:37:36;3.87;;;3.47;;
11086;SDS011;5597;47.588;9.642;2023-07-29T10:40:05;4.63;;;3.80;;
11086;SDS011;5597;47.588;9.642;2023-07-29T10:42:32;4.43;;;3.87;;
11086;SDS011;5597;47.588;9.642;2023-07-29T10:44:58;3.70;;;3.40;;
11086;SDS011;5597;47.588;9.642;2023-07-29T10:47:24;4.10;;;3.70;;
11086;SDS011;5597;47.588;9.642;2023-07-29T10:49:56;4.07;;;3.70;;
11086;SDS011;5597;47.588;9.642;2023-07-29T10:52:29;4.40;;;3.50;;
11086;SDS011;5597;47.588;9.642;2023-07-29T10:55:01;3.83;;;3.43;;
11086;SDS011;5597;47.588;9.642;2023-07-29T10:57:38;3.47;;;3.17;;
11086;SDS011;5597;47.588;9.642;2023-07-29T11:00:06;3.37;;;3.07;;
11086;SDS011;5597;47.588;9.642;2023-07-29T11:02:36;3.47;;;3.27;;
11086;SDS011;5597;47.588;9.642;2023-07-29T11:05:07;3.57;;;3.27;;
11086;SDS011;5597;47.588;9.642;2023-07-29T11:07:58;3.73;;;3.30;;
11086;SDS011;5597;47.588;9.642;2023-07-29T11:10:43;3.77;;;3.47;;
11086;SDS011;5597;47.588;9.642;2023-07-29T11:13:11;3.10;;;2.90;;
11086;SDS011;5597;47.588;9.642;2023-07-29T11:15:38;4.37;;;3.23;;
11086;SDS011;5597;47.588;9.642;2023-07-29T11:18:04;3.97;;;3.60;;
11086;SDS011;5597;47.588;9.642;2023-07-29T11:20:32;3.70;;;3.40;;
11086;SDS011;5597;47.588;9.642;2023-07-29T11:22:59;3.70;;;3.40;;
11086;SDS011;5597;47.588;9.642;2023-07-29T11:25:29;3.43;;;3.13;;
11086;SDS011;5597;47.588;9.642;2023-07-29T11:27:56;3.37;;;3.10;;
11086;SDS011;5597;47.588;9.642;2023-07-29T11:30:23;3.67;;;3.37;;
11086;SDS011;5597;47.588;9.642;2023-07-29T11:32:52;3.70;;;3.40;;
11086;SDS011;5597;47.588;9.642;2023-07-29T11:35:19;3.80;;;3.20;;
11086;SDS011;5597;47.588;9.642;2023-07-29T11:37:45;3.43;;;3.13;;
11086;SDS011;5597;47.588;9.642;2023-07-29T11:40:16;4.33;;;3.40;;
11086;SDS011;5597;47.588;9.642;2023-07-29T11:42:42;3.40;;;3.10;;
11086;SDS011;5597;47.588;9.642;2023-07-29T11:45:08;3.67;;;3.37;;
11086;SDS011;5597;47.588;9.642;2023-07-29T11:47:34;3.47;;;3.00;;
11086;SDS011;5597;47.588;9.642;2023-07-29T11:50:02;3.20;;;2.90;;
11086;SDS011;5597;47.588;9.642;2023-07-29T11:52:29;3.30;;;3.00;;
11086;SDS011;5597;47.588;9.642;2023-07-29T11:54:57;3.57;;;3.27;;
11086;SDS011;5597;47.588;9.642;2023-07-29T11:57:23;3.53;;;3.10;;
11086;SDS011;5597;47.588;9.642;2023-07-29T11:59:49;3.67;;;3.30;;
11086;SDS011;5597;47.588;9.642;2023-07-29T12:02:15;3.30;;;3.00;;
11086;SDS011;5597;47.588;9.642;2023-07-29T12:04:44;3.53;;;3.13;;
11086;SDS011;5597;47.588;9.642;2023-07-29T12:07:12;3.03;;;2.77;;
11086;SDS011;5597;47.588;9.642;2023-07-29T12:09:39;3.40;;;3.10;;
11086;SDS011;5597;47.588;9.642;2023-07-29T12:12:06;2.70;;;2.50;;
11086;SDS011;5597;47.588;9.642;2023-07-29T12:14:32;3.17;;;2.97;;
11086;SDS011;5597;47.588;9.642;2023-07-29T12:16:59;3.57;;;2.63;;
11086;SDS011;5597;47.588;9.642;2023-07-29T12:19:31;3.30;;;3.00;;
11086;SDS011;5597;47.588;9.642;2023-07-29T12:21:58;3.87;;;3.00;;
11086;SDS011;5597;47.588;9.642;2023-07-29T12:24:24;3.20;;;2.80;;
11086;SDS011;5597;47.588;9.642;2023-07-29T12:26:49;2.70;;;2.50;;
11086;SDS011;5597;47.588;9.642;2023-07-29T12:29:17;2.90;;;2.63;;
11086;SDS011;5597;47.588;9.642;2023-07-29T12:31:46;3.00;;;2.70;;
11086;SDS011;5597;47.588;9.642;2023-07-29T12:34:21;3.20;;;2.90;;
11086;SDS011;5597;47.588;9.642;2023-07-29T12:36:48;3.00;;;2.70;;
11086;SDS011;5597;47.588;9.642;2023-07-29T12:39:22;3.20;;;2.87;;
11086;SDS011;5597;47.588;9.642;2023-07-29T12:41:56;3.10;;;2.80;;
11086;SDS011;5597;47.588;9.642;2023-07-29T12:44:23;3.17;;;2.87;;
11086;SDS011;5597;47.588;9.642;2023-07-29T12:46:49;3.20;;;2.90;;
11086;SDS011;5597;47.588;9.642;2023-07-29T12:49:16;2.63;;;2.43;;
11086;SDS011;5597;47.588;9.642;2023-07-29T12:51:41;2.53;;;2.33;;
11086;SDS011;5597;47.588;9.642;2023-07-29T12:54:08;3.10;;;2.87;;
11086;SDS011;5597;47.588;9.642;2023-07-29T12:56:33;3.23;;;2.93;;
11086;SDS011;5597;47.588;9.642;2023-07-29T12:59:00;3.23;;;3.03;;
11086;SDS011;5597;47.588;9.642;2023-07-29T13:01:26;3.20;;;2.90;;
11086;SDS011;5597;47.588;9.642;2023-07-29T13:03:53;3.47;;;3.17;;
11086;SDS011;5597;47.588;9.642;2023-07-29T13:06:18;3.13;;;2.83;;
11086;SDS011;5597;47.588;9.642;2023-07-29T13:08:44;3.13;;;2.90;;
11086;SDS011;5597;47.588;9.642;2023-07-29T13:11:11;2.97;;;2.77;;
11086;SDS011;5597;47.588;9.642;2023-07-29T13:13:37;4.33;;;4.03;;
11086;SDS011;5597;47.588;9.642;2023-07-29T13:16:02;4.80;;;4.40;;
11086;SDS011;5597;47.588;9.642;2023-07-29T13:18:28;5.03;;;4.60;;
11086;SDS011;5597;47.588;9.642;2023-07-29T13:20:54;4.47;;;4.03;;
11086;SDS011;5597;47.588;9.642;2023-07-29T13:23:20;4.00;;;3.70;;
11086;SDS011;5597;47.588;9.642;2023-07-29T13:25:46;4.00;;;3.70;;
11086;SDS011;5597;47.588;9.642;2023-07-29T13:28:12;4.10;;;3.80;;
11086;SDS011;5597;47.588;9.642;2023-07-29T13:30:38;4.23;;;3.83;;
11086;SDS011;5597;47.588;9.642;2023-07-29T13:33:04;5.60;;;5.00;;
11086;SDS011;5597;47.588;9.642;2023-07-29T13:35:30;5.97;;;5.47;;
11086;SDS011;5597;47.588;9.642;2023-07-29T13:37:55;5.77;;;5.27;;
11086;SDS011;5597;47.588;9.642;2023-07-29T13:40:21;4.97;;;4.57;;
11086;SDS011;5597;47.588;9.642;2023-07-29T13:42:47;4.70;;;4.30;;
11086;SDS011;5597;47.588;9.642;2023-07-29T13:45:12;4.37;;;3.43;;
11086;SDS011;5597;47.588;9.642;2023-07-29T13:47:38;3.57;;;3.27;;
11086;SDS011;5597;47.588;9.642;2023-07-29T13:50:03;4.23;;;3.80;;
11086;SDS011;5597;47.588;9.642;2023-07-29T13:52:29;3.97;;;3.57;;
11086;SDS011;5597;47.588;9.642;2023-07-29T13:54:55;4.70;;;4.07;;
11086;SDS011;5597;47.588;9.642;2023-07-29T13:57:20;4.53;;;3.87;;
11086;SDS011;5597;47.588;9.642;2023-07-29T13:59:46;3.70;;;3.40;;
11086;SDS011;5597;47.588;9.642;2023-07-29T14:02:12;4.20;;;3.80;;
11086;SDS011;5597;47.588;9.642;2023-07-29T14:04:38;4.40;;;3.97;;
11086;SDS011;5597;47.588;9.642;2023-07-29T14:07:04;4.93;;;4.27;;
11086;SDS011;5597;47.588;9.642;2023-07-29T14:09:29;6.73;;;4.13;;
11086;SDS011;5597;47.588;9.642;2023-07-29T14:11:55;4.70;;;3.90;;
11086;SDS011;5597;47.588;9.642;2023-07-29T14:14:20;4.60;;;3.70;;
11086;SDS011;5597;47.588;9.642;2023-07-29T14:16:46;4.20;;;3.80;;
11086;SDS011;5597;47.588;9.642;2023-07-29T14:19:12;4.50;;;4.10;;
11086;SDS011;5597;47.588;9.642;2023-07-29T14:21:38;4.13;;;3.70;;
11086;SDS011;5597;47.588;9.642;2023-07-29T14:24:03;3.83;;;3.50;;
11086;SDS011;5597;47.588;9.642;2023-07-29T14:26:30;3.77;;;3.47;;
11086;SDS011;5597;47.588;9.642;2023-07-29T14:28:56;3.90;;;3.50;;
11086;SDS011;5597;47.588;9.642;2023-07-29T14:31:21;4.33;;;3.73;;
11086;SDS011;5597;47.588;9.642;2023-07-29T14:33:47;4.20;;;3.80;;
11086;SDS011;5597;47.588;9.642;2023-07-29T14:36:14;3.67;;;3.37;;
11086;SDS011;5597;47.588;9.642;2023-07-29T14:38:40;3.43;;;3.13;;
11086;SDS011;5597;47.588;9.642;2023-07-29T14:41:06;2.83;;;2.60;;
11086;SDS011;5597;47.588;9.642;2023-07-29T14:43:31;2.70;;;2.50;;
11086;SDS011;5597;47.588;9.642;2023-07-29T14:45:57;3.37;;;2.40;;
11086;SDS011;5597;47.588;9.642;2023-07-29T14:48:23;2.40;;;2.20;;
11086;SDS011;5597;47.588;9.642;2023-07-29T14:50:48;3.23;;;2.43;;
11086;SDS011;5597;47.588;9.642;2023-07-29T14:53:14;2.60;;;2.40;;
11086;SDS011;5597;47.588;9.642;2023-07-29T14:55:40;3.07;;;2.70;;
11086;SDS011;5597;47.588;9.642;2023-07-29T14:58:05;2.40;;;2.20;;
11086;SDS011;5597;47.588;9.642;2023-07-29T15:00:31;2.40;;;2.20;;
11086;SDS011;5597;47.588;9.642;2023-07-29T15:02:57;2.53;;;2.07;;